Time;durP1;ratioP1;P1;durP2;ratioP2;P2;SDS_P1;SDS_P2;PMS_P1;PMS_P2;Temp;Humidity;BMP_temperature;BMP_pressure;BME280_temperature;BME280_humidity;BME280_pressure;Samples;Min_cycle;Max_cycle;Signal;HPM_P1;HPM_P2
2023/12/09 00:00:54;;;;;;;1999.90;999.90;;;4.60;99.90;;;;;;5064313;28;20032;-75
2023/12/09 00:03:20;;;;;;;1999.90;999.90;;;4.40;99.90;;;;;;5069885;28;20368;-76
2023/12/09 00:05:45;;;;;;;1999.90;999.90;;;4.60;99.90;;;;;;5064127;28;20071;-75
2023/12/09 00:08:11;;;;;;;1999.90;999.90;;;4.60;99.90;;;;;;5070346;28;20163;-74
2023/12/09 00:10:37;;;;;;;1999.90;999.90;;;4.60;99.90;;;;;;5066456;28;20044;-74
2023/12/09 00:13:03;;;;;;;1999.90;999.90;;;4.60;99.90;;;;;;5066738;28;20037;-75
2023/12/09 00:15:28;;;;;;;1999.90;999.90;;;4.60;99.90;;;;;;5068730;28;20036;-76
2023/12/09 00:17:54;;;;;;;1999.90;999.90;;;4.50;99.90;;;;;;5071780;28;20059;-74
2023/12/09 00:20:20;;;;;;;1999.90;999.90;;;4.60;99.90;;;;;;5065316;28;20171;-74
2023/12/09 00:22:48;;;;;;;1999.90;999.90;;;4.50;99.90;;;;;;5067444;28;20158;-75
2023/12/09 00:25:14;;;;;;;1999.90;999.90;;;4.60;99.90;;;;;;5071646;28;20036;-75
2023/12/09 00:27:39;;;;;;;1999.90;999.90;;;4.40;99.90;;;;;;5072354;28;20054;-74
2023/12/09 00:30:07;;;;;;;1999.90;999.90;;;4.50;99.90;;;;;;5072445;28;20025;-75
2023/12/09 00:32:33;;;;;;;1999.90;999.90;;;4.50;99.90;;;;;;5067838;28;20131;-73
2023/12/09 00:35:00;;;;;;;1999.90;999.90;;;4.60;99.90;;;;;;5065946;28;20034;-75
2023/12/09 00:37:26;;;;;;;1999.90;999.90;;;4.50;99.90;;;;;;5068195;28;20025;-74
2023/12/09 00:39:51;;;;;;;1999.90;999.90;;;4.50;99.90;;;;;;5069166;28;20720;-75
2023/12/09 00:42:17;;;;;;;1999.90;999.90;;;4.50;99.90;;;;;;5068533;28;20029;-74
2023/12/09 00:44:43;;;;;;;1999.90;999.90;;;4.30;99.90;;;;;;5066500;28;20430;-74
2023/12/09 00:47:09;;;;;;;1999.90;999.90;;;4.40;99.90;;;;;;5065342;28;20037;-74
2023/12/09 00:49:35;;;;;;;1999.90;999.90;;;4.40;99.90;;;;;;5069561;28;20024;-76
2023/12/09 00:52:00;;;;;;;1999.90;999.90;;;4.50;99.90;;;;;;5061443;28;20098;-75
2023/12/09 00:54:29;;;;;;;1999.90;999.90;;;4.50;99.90;;;;;;5067431;28;20039;-73
2023/12/09 00:56:55;;;;;;;1999.90;999.90;;;4.40;99.90;;;;;;5063241;28;20107;-74
2023/12/09 00:59:20;;;;;;;1999.90;999.90;;;4.40;99.90;;;;;;5069300;28;20456;-74
2023/12/09 01:01:46;;;;;;;1999.90;999.90;;;4.30;99.90;;;;;;5063189;28;20029;-75
2023/12/09 01:04:13;;;;;;;1999.90;999.90;;;4.50;99.90;;;;;;5065054;28;20049;-75
2023/12/09 01:06:38;;;;;;;1999.90;999.90;;;4.40;99.90;;;;;;5069151;28;20032;-75
2023/12/09 01:09:04;;;;;;;1999.90;999.90;;;4.30;99.90;;;;;;5065521;28;20521;-73
2023/12/09 01:11:29;;;;;;;1999.90;999.90;;;4.40;99.90;;;;;;5067455;28;20033;-75
2023/12/09 01:13:55;;;;;;;1999.90;999.90;;;4.50;99.90;;;;;;5067641;28;20554;-75
2023/12/09 01:16:21;;;;;;;1999.90;999.90;;;4.50;99.90;;;;;;5067853;28;20034;-73
2023/12/09 01:18:46;;;;;;;1999.90;999.90;;;4.50;99.90;;;;;;5069218;28;20024;-75
2023/12/09 01:21:12;;;;;;;1999.90;999.90;;;4.40;99.90;;;;;;5070971;28;20083;-76
2023/12/09 01:23:39;;;;;;;1999.90;999.90;;;4.40;99.90;;;;;;5066953;28;20561;-73
2023/12/09 01:26:05;;;;;;;1999.90;999.90;;;4.40;99.90;;;;;;5070385;28;20029;-74
2023/12/09 01:28:31;;;;;;;1999.90;999.90;;;4.30;99.90;;;;;;5072811;28;20225;-74
2023/12/09 01:30:57;;;;;;;1999.90;999.90;;;4.30;99.90;;;;;;5068464;28;20035;-74
2023/12/09 01:33:22;;;;;;;1999.90;999.90;;;4.40;99.90;;;;;;5068985;28;20598;-74
2023/12/09 01:35:48;;;;;;;1999.90;999.90;;;4.50;99.90;;;;;;5068657;28;20033;-73
2023/12/09 01:38:13;;;;;;;1999.90;999.90;;;4.40;99.90;;;;;;5070873;28;20033;-75
2023/12/09 01:40:39;;;;;;;1999.90;999.90;;;4.40;99.90;;;;;;5064587;28;20033;-75
2023/12/09 01:43:09;;;;;;;1999.90;999.90;;;4.50;99.90;;;;;;5064868;28;20091;-75
2023/12/09 01:45:35;;;;;;;1999.90;999.90;;;4.60;99.90;;;;;;5068559;28;20119;-76
2023/12/09 01:48:01;;;;;;;1999.90;999.90;;;4.70;99.90;;;;;;5069533;28;20123;-74
2023/12/09 01:50:28;;;;;;;1999.90;999.90;;;4.50;99.90;;;;;;5065168;28;20037;-75
2023/12/09 01:52:53;;;;;;;1999.90;999.90;;;4.60;99.90;;;;;;5053860;28;20043;-73
2023/12/09 01:55:19;;;;;;;1999.90;999.90;;;4.60;99.90;;;;;;5065929;28;20387;-76
2023/12/09 01:57:45;;;;;;;1999.90;999.90;;;4.50;99.90;;;;;;5060814;28;20372;-75
2023/12/09 02:00:11;;;;;;;1999.90;999.90;;;4.50;99.90;;;;;;5067769;28;20033;-75
2023/12/09 02:02:37;;;;;;;1999.90;999.90;;;4.70;99.90;;;;;;5066955;28;20024;-75
2023/12/09 02:05:03;;;;;;;1999.90;999.90;;;4.60;99.90;;;;;;5069331;28;20031;-74
2023/12/09 02:07:29;;;;;;;1999.90;999.90;;;4.50;99.90;;;;;;5069493;28;20051;-75
2023/12/09 02:09:55;;;;;;;1999.90;999.90;;;4.60;99.90;;;;;;5068751;28;20394;-75
2023/12/09 02:12:26;;;;;;;1999.90;999.90;;;4.50;99.90;;;;;;5069635;28;20381;-75
2023/12/09 02:15:05;;;;;;;1999.90;999.90;;;4.60;99.90;;;;;;5066025;28;20485;-74
2023/12/09 02:17:42;;;;;;;1999.90;999.90;;;4.50;99.90;;;;;;5065272;28;20793;-74
2023/12/09 02:20:12;;;;;;;1999.90;999.90;;;4.60;99.90;;;;;;5063568;28;20048;-74
2023/12/09 02:22:38;;;;;;;1999.90;999.90;;;4.60;99.90;;;;;;5065907;28;20043;-74
2023/12/09 02:25:04;;;;;;;1999.90;999.90;;;4.60;99.90;;;;;;5069297;28;20032;-75
2023/12/09 02:27:56;;;;;;;1999.90;999.90;;;4.40;99.90;;;;;;5065671;28;20595;-75
2023/12/09 02:30:31;;;;;;;1999.90;999.90;;;4.40;99.90;;;;;;5065750;28;20036;-75
2023/12/09 02:32:58;;;;;;;1999.90;999.90;;;4.50;99.90;;;;;;5065650;28;20230;-73
2023/12/09 02:35:26;;;;;;;1999.90;999.90;;;4.50;99.90;;;;;;5069500;28;20029;-74
2023/12/09 02:37:53;;;;;;;1999.90;999.90;;;4.40;99.90;;;;;;5065755;28;20044;-74
2023/12/09 02:40:20;;;;;;;1999.90;999.90;;;4.40;99.90;;;;;;5067513;28;20069;-73
2023/12/09 02:42:47;;;;;;;1999.90;999.90;;;4.40;99.90;;;;;;5065293;28;20028;-73
2023/12/09 02:45:12;;;;;;;1999.90;999.90;;;4.50;99.90;;;;;;5065245;28;20032;-74
2023/12/09 02:47:38;;;;;;;1999.90;999.90;;;4.40;99.90;;;;;;5062989;28;21033;-75
2023/12/09 02:50:04;;;;;;;1999.90;999.90;;;4.30;99.90;;;;;;5063704;28;20450;-74
2023/12/09 02:52:30;;;;;;;1999.90;999.90;;;4.40;99.90;;;;;;5062667;28;20041;-75
2023/12/09 02:54:56;;;;;;;1999.90;999.90;;;4.40;99.90;;;;;;5068288;28;20041;-75
2023/12/09 02:57:21;;;;;;;1999.90;999.90;;;4.50;99.90;;;;;;5068264;28;20024;-74
2023/12/09 02:59:47;;;;;;;1999.90;999.90;;;4.30;99.90;;;;;;5063512;28;20040;-74
2023/12/09 03:02:12;;;;;;;1999.90;999.90;;;4.30;99.90;;;;;;5065276;28;20107;-76
2023/12/09 03:04:38;;;;;;;1999.90;999.90;;;4.30;99.90;;;;;;5062749;28;20043;-75
2023/12/09 03:07:04;;;;;;;1999.90;999.90;;;4.40;99.90;;;;;;5067322;28;20560;-74
2023/12/09 03:09:29;;;;;;;1999.90;999.90;;;4.40;99.90;;;;;;5069737;28;20059;-75
2023/12/09 03:11:55;;;;;;;1999.90;999.90;;;4.40;99.90;;;;;;5062415;28;20040;-75
2023/12/09 03:14:22;;;;;;;1999.90;999.90;;;4.50;99.90;;;;;;5064649;28;20025;-74
2023/12/09 03:16:48;;;;;;;1999.90;999.90;;;4.50;99.90;;;;;;5066985;28;20043;-74
2023/12/09 03:19:13;;;;;;;1999.90;999.90;;;4.30;99.90;;;;;;5068595;28;20104;-74
2023/12/09 03:21:39;;;;;;;1999.90;999.90;;;4.50;99.90;;;;;;5065200;28;20068;-75
2023/12/09 03:24:05;;;;;;;1999.90;999.90;;;4.50;99.90;;;;;;5071735;28;20141;-73
2023/12/09 03:26:31;;;;;;;1999.90;999.90;;;4.50;99.90;;;;;;5071480;28;20052;-74
2023/12/09 03:28:57;;;;;;;1999.90;999.90;;;4.50;99.90;;;;;;5067637;28;20528;-75
2023/12/09 03:31:22;;;;;;;1999.90;999.90;;;4.60;99.90;;;;;;5066507;28;20052;-73
2023/12/09 03:33:48;;;;;;;1999.90;999.90;;;4.50;99.90;;;;;;5066418;28;20024;-75
2023/12/09 03:36:14;;;;;;;1999.90;999.90;;;4.50;99.90;;;;;;5065577;28;20550;-73
2023/12/09 03:38:40;;;;;;;1999.90;999.90;;;4.60;99.90;;;;;;5065627;28;20028;-74
2023/12/09 03:41:06;;;;;;;1999.90;999.90;;;4.60;99.90;;;;;;5065272;28;20029;-74
2023/12/09 03:43:32;;;;;;;1999.90;999.90;;;4.70;99.90;;;;;;5065276;28;20556;-74
2023/12/09 03:45:58;;;;;;;1999.90;999.90;;;4.50;99.90;;;;;;5066278;28;20106;-75
2023/12/09 03:48:28;;;;;;;1999.90;999.90;;;4.50;99.90;;;;;;5066609;28;20455;-75
2023/12/09 03:50:54;;;;;;;1999.90;999.90;;;4.60;99.90;;;;;;5065827;28;20117;-74
2023/12/09 03:53:20;;;;;;;1999.90;999.90;;;4.60;99.90;;;;;;5067013;28;20040;-74
2023/12/09 03:55:45;;;;;;;1999.90;999.90;;;4.70;99.90;;;;;;5064660;28;20036;-75
2023/12/09 03:58:11;;;;;;;1999.90;999.90;;;4.40;99.90;;;;;;5061587;28;20107;-74
2023/12/09 04:00:37;;;;;;;1999.90;999.90;;;4.50;99.90;;;;;;5066279;28;20422;-75
2023/12/09 04:03:03;;;;;;;1999.90;999.90;;;4.50;99.90;;;;;;5064462;28;20033;-74
2023/12/09 04:05:29;;;;;;;1999.90;999.90;;;4.40;99.90;;;;;;5062667;28;20553;-74
2023/12/09 04:07:54;;;;;;;1999.90;999.90;;;4.30;99.90;;;;;;5062942;28;20044;-75
2023/12/09 04:10:20;;;;;;;1999.90;999.90;;;4.40;99.90;;;;;;5068986;28;20723;-75
2023/12/09 04:12:46;;;;;;;1999.90;999.90;;;4.30;99.90;;;;;;5064775;28;20027;-75
2023/12/09 04:15:11;;;;;;;1999.90;999.90;;;4.30;99.90;;;;;;5060849;28;20633;-75
2023/12/09 04:17:37;;;;;;;1999.90;999.90;;;4.30;99.90;;;;;;5063426;28;20612;-75
2023/12/09 04:20:08;;;;;;;1999.90;999.90;;;4.20;99.90;;;;;;5064239;28;20096;-75
2023/12/09 04:22:36;;;;;;;;;;;4.20;99.90;;;;;;5062668;28;20025;-74
2023/12/09 04:25:04;;;;;;;1999.90;999.90;;;4.20;99.90;;;;;;5048408;28;19962;-75
2023/12/09 04:27:34;;;;;;;1999.90;999.90;;;4.20;99.90;;;;;;5048343;28;20060;-75
2023/12/09 04:30:01;;;;;;;1999.90;999.90;;;4.20;99.90;;;;;;5063307;28;20454;-74
2023/12/09 04:32:30;;;;;;;1999.90;999.90;;;4.10;99.90;;;;;;5095334;28;20640;-74
2023/12/09 04:34:57;;;;;;;1999.90;999.90;;;4.10;99.90;;;;;;5081222;28;20040;-73
2023/12/09 04:37:23;;;;;;;1999.90;999.90;;;4.10;99.90;;;;;;5065080;28;20073;-75
2023/12/09 04:39:49;;;;;;;1999.90;999.90;;;4.10;99.90;;;;;;5062714;28;20040;-75
2023/12/09 04:42:14;;;;;;;1999.90;999.90;;;4.10;99.90;;;;;;5067584;28;20036;-75
2023/12/09 04:44:40;;;;;;;1999.90;999.90;;;4.00;99.90;;;;;;5066652;28;20028;-75
2023/12/09 04:47:06;;;;;;;1999.90;999.90;;;4.10;99.90;;;;;;5066588;28;20555;-74
2023/12/09 04:49:32;;;;;;;1999.90;999.90;;;4.00;99.90;;;;;;5063047;28;20037;-73
2023/12/09 04:51:58;;;;;;;1999.90;999.90;;;3.90;99.90;;;;;;5067782;28;20064;-75
2023/12/09 04:54:23;;;;;;;1999.90;999.90;;;3.90;99.90;;;;;;5065455;28;20394;-74
2023/12/09 04:56:49;;;;;;;1999.90;999.90;;;3.80;99.90;;;;;;5064107;28;20036;-74
2023/12/09 04:59:15;;;;;;;1999.90;999.90;;;3.80;99.90;;;;;;5066669;28;20024;-74
2023/12/09 05:01:41;;;;;;;1999.90;999.90;;;4.00;99.90;;;;;;5069054;28;21124;-74
2023/12/09 05:04:07;;;;;;;1999.90;999.90;;;3.90;99.90;;;;;;5064653;28;20442;-74
2023/12/09 05:06:33;;;;;;;1999.90;999.90;;;4.00;99.90;;;;;;5067225;28;20027;-74
2023/12/09 05:08:58;;;;;;;1999.90;999.90;;;3.80;99.90;;;;;;5066491;28;20028;-75
2023/12/09 05:11:24;;;;;;;1999.90;999.90;;;4.00;99.90;;;;;;5071087;28;20091;-76
2023/12/09 05:13:50;;;;;;;1999.90;999.90;;;3.80;99.90;;;;;;5070458;28;20544;-76
2023/12/09 05:16:15;;;;;;;1999.90;999.90;;;4.00;99.90;;;;;;5072448;28;20540;-76
2023/12/09 05:18:41;;;;;;;1999.90;999.90;;;3.80;99.90;;;;;;5068985;28;20052;-76
2023/12/09 05:21:07;;;;;;;1999.90;999.90;;;3.80;99.90;;;;;;5067910;28;20067;-76
2023/12/09 05:23:33;;;;;;;1999.90;999.90;;;3.80;99.90;;;;;;5063411;28;20055;-76
2023/12/09 05:25:59;;;;;;;1999.90;999.90;;;3.90;99.90;;;;;;5069940;28;20059;-76
2023/12/09 05:28:25;;;;;;;1999.90;999.90;;;3.80;99.90;;;;;;5072433;28;20044;-75
2023/12/09 05:30:51;;;;;;;1999.90;999.90;;;3.90;99.90;;;;;;5069337;28;20031;-77
2023/12/09 05:33:17;;;;;;;1999.90;999.90;;;3.80;99.90;;;;;;5067221;28;20024;-76
2023/12/09 05:35:43;;;;;;;1999.90;999.90;;;3.90;99.90;;;;;;5068612;28;20043;-75
2023/12/09 05:38:09;;;;;;;1999.90;999.90;;;3.90;99.90;;;;;;5065229;28;20071;-73
2023/12/09 05:40:34;;;;;;;1999.90;999.90;;;3.90;99.90;;;;;;5065988;28;20427;-74
2023/12/09 05:43:00;;;;;;;1999.90;999.90;;;4.00;99.90;;;;;;5069192;28;20637;-74
2023/12/09 05:45:26;;;;;;;1999.90;999.90;;;3.90;99.90;;;;;;5067707;28;20115;-74
2023/12/09 05:47:51;;;;;;;1999.90;999.90;;;3.80;99.90;;;;;;5049053;28;20406;-75
2023/12/09 05:50:17;;;;;;;1999.90;999.90;;;3.70;99.90;;;;;;5066359;28;20041;-74
2023/12/09 05:52:43;;;;;;;1999.90;999.90;;;3.70;99.90;;;;;;5063885;28;20037;-74
2023/12/09 05:55:09;;;;;;;1999.90;999.90;;;3.60;99.90;;;;;;5066853;28;20410;-73
2023/12/09 05:57:34;;;;;;;1999.90;999.90;;;3.70;99.90;;;;;;5068715;28;20091;-74
2023/12/09 06:00:00;;;;;;;1999.90;999.90;;;3.70;99.90;;;;;;5063839;28;20402;-74
2023/12/09 06:02:26;;;;;;;1999.90;999.90;;;3.70;99.90;;;;;;5065540;28;20024;-73
2023/12/09 06:04:51;;;;;;;1999.90;999.90;;;3.60;99.90;;;;;;5066241;28;20044;-74
2023/12/09 06:07:17;;;;;;;1999.90;999.90;;;3.50;99.90;;;;;;5063565;28;20032;-74
2023/12/09 06:09:43;;;;;;;1999.90;999.90;;;3.50;99.90;;;;;;5065466;28;20028;-73
2023/12/09 06:12:09;;;;;;;1999.90;999.90;;;3.40;99.90;;;;;;5062747;28;20134;-74
2023/12/09 06:14:34;;;;;;;1999.90;999.90;;;3.50;99.90;;;;;;5063158;28;20067;-73
2023/12/09 06:17:00;;;;;;;1999.90;999.90;;;3.40;99.90;;;;;;5098072;28;20025;-73
2023/12/09 06:19:25;;;;;;;1999.90;999.90;;;3.40;99.90;;;;;;5073043;28;20032;-74
2023/12/09 06:21:51;;;;;;;1999.90;999.90;;;3.40;99.90;;;;;;5067704;28;20048;-74
2023/12/09 06:24:17;;;;;;;1999.90;999.90;;;3.30;99.90;;;;;;5065691;28;20043;-74
2023/12/09 06:26:44;;;;;;;1999.90;999.90;;;3.40;99.90;;;;;;5046686;28;20032;-72
2023/12/09 06:29:13;;;;;;;1999.90;999.90;;;3.50;99.90;;;;;;5066016;28;20655;-73
2023/12/09 06:31:39;;;;;;;1999.90;999.90;;;3.50;99.90;;;;;;5064704;28;20394;-75
2023/12/09 06:34:04;;;;;;;1999.90;999.90;;;3.30;99.90;;;;;;5066228;28;20024;-75
2023/12/09 06:36:30;;;;;;;1999.90;999.90;;;3.30;99.90;;;;;;5067978;28;20508;-74
2023/12/09 06:38:56;;;;;;;1999.90;999.90;;;3.40;99.90;;;;;;5065345;28;20255;-75
2023/12/09 06:41:21;;;;;;;1999.90;999.90;;;3.50;99.90;;;;;;5064656;28;20036;-74
2023/12/09 06:43:47;;;;;;;1999.90;999.90;;;3.30;99.90;;;;;;5064106;28;20040;-73
2023/12/09 06:46:13;;;;;;;1999.90;999.90;;;3.30;99.90;;;;;;5066151;28;20056;-74
2023/12/09 06:48:38;;;;;;;1999.90;999.90;;;3.20;99.90;;;;;;5065136;28;20068;-73
2023/12/09 06:51:07;;;;;;;1999.90;999.90;;;3.20;99.90;;;;;;5066518;28;20037;-75
2023/12/09 06:53:37;;;;;;;1999.90;999.90;;;3.20;99.90;;;;;;5063003;28;20064;-74
2023/12/09 06:56:03;;;;;;;1999.90;999.90;;;3.30;99.90;;;;;;5066429;28;20033;-75
2023/12/09 06:58:29;;;;;;;1999.90;999.90;;;3.20;99.90;;;;;;5065139;28;20044;-74
2023/12/09 07:00:55;;;;;;;1999.90;999.90;;;3.10;99.90;;;;;;5062794;28;20044;-75
2023/12/09 07:03:21;;;;;;;1999.90;999.90;;;3.10;99.90;;;;;;5065022;28;20115;-74
2023/12/09 07:05:47;;;;;;;1999.90;999.90;;;3.10;99.90;;;;;;5062300;28;20032;-74
2023/12/09 07:08:12;;;;;;;1999.90;999.90;;;3.20;99.90;;;;;;5061278;28;20533;-74
2023/12/09 07:10:38;;;;;;;1999.90;999.90;;;3.20;99.90;;;;;;5049454;28;20383;-76
2023/12/09 07:13:04;;;;;;;1999.90;999.90;;;3.00;99.90;;;;;;5063595;28;20035;-73
2023/12/09 07:15:30;;;;;;;1999.90;999.90;;;3.00;99.90;;;;;;5063384;28;20025;-75
2023/12/09 07:17:56;;;;;;;1999.90;999.90;;;3.10;99.90;;;;;;5067641;28;20205;-74
2023/12/09 07:20:21;;;;;;;1999.90;999.90;;;3.10;99.90;;;;;;5063110;28;20036;-73
2023/12/09 07:22:47;;;;;;;1999.90;999.90;;;3.10;99.90;;;;;;5063748;28;20044;-73
2023/12/09 07:25:13;;;;;;;1999.90;999.90;;;3.10;99.90;;;;;;5061412;28;20036;-75
2023/12/09 07:27:38;;;;;;;1999.90;999.90;;;3.10;99.90;;;;;;5063752;28;20067;-75
2023/12/09 07:30:05;;;;;;;1999.90;999.90;;;3.00;99.90;;;;;;5061836;28;20035;-77
2023/12/09 07:32:31;;;;;;;1999.90;999.90;;;3.00;99.90;;;;;;5061271;28;20106;-74
2023/12/09 07:34:56;;;;;;;1999.90;999.90;;;3.10;99.90;;;;;;5062421;28;20032;-75
2023/12/09 07:37:22;;;;;;;1999.90;999.90;;;3.20;99.90;;;;;;5065534;28;20048;-77
2023/12/09 07:39:48;;;;;;;1999.90;999.90;;;3.30;99.90;;;;;;5064122;28;20036;-75
2023/12/09 07:42:13;;;;;;;1999.90;999.90;;;3.50;99.90;;;;;;5061742;28;20040;-74
2023/12/09 07:44:39;;;;;;;1999.90;999.90;;;3.50;99.90;;;;;;5061434;28;20052;-73
2023/12/09 07:47:05;;;;;;;1999.90;999.90;;;3.60;99.90;;;;;;5065425;28;20041;-78
2023/12/09 07:49:30;;;;;;;1999.90;999.90;;;3.60;99.90;;;;;;5047863;28;20036;-71
2023/12/09 07:51:56;;;;;;;1999.90;999.90;;;3.70;99.90;;;;;;5064063;28;20149;-75
2023/12/09 07:54:22;;;;;;;1999.90;999.90;;;3.90;99.90;;;;;;5062628;28;23516;-74
2023/12/09 07:56:47;;;;;;;1999.90;999.90;;;3.70;99.90;;;;;;5063501;28;20032;-73
2023/12/09 07:59:13;;;;;;;1999.90;999.90;;;3.50;99.90;;;;;;5064535;28;20078;-75
2023/12/09 08:01:40;;;;;;;1999.90;999.90;;;3.70;99.90;;;;;;5063089;28;20028;-77
2023/12/09 08:04:06;;;;;;;1999.90;999.90;;;3.50;99.90;;;;;;5064399;28;20028;-75
2023/12/09 08:06:32;;;;;;;1999.90;999.90;;;3.60;99.90;;;;;;5061601;28;20031;-75
2023/12/09 08:08:58;;;;;;;1999.90;999.90;;;3.50;99.90;;;;;;5044836;28;20442;-74
2023/12/09 08:11:23;;;;;;;1999.90;999.90;;;3.40;99.90;;;;;;5049893;28;20132;-77
2023/12/09 08:13:49;;;;;;;1999.90;999.90;;;3.40;99.90;;;;;;5067988;28;20040;-80
2023/12/09 08:16:15;;;;;;;1999.90;999.90;;;3.40;99.90;;;;;;5063848;28;20029;-79
2023/12/09 08:18:42;;;;;;;1999.90;999.90;;;3.60;99.90;;;;;;5043912;28;20559;-76
2023/12/09 08:21:09;;;;;;;1999.90;999.90;;;3.50;99.90;;;;;;5062410;28;20116;-75
2023/12/09 08:23:34;;;;;;;1999.90;999.90;;;3.60;99.90;;;;;;5064594;28;20040;-75
2023/12/09 08:26:00;;;;;;;1999.90;999.90;;;3.50;99.90;;;;;;5043374;28;20033;-74
2023/12/09 08:28:27;;;;;;;1999.90;999.90;;;3.50;99.90;;;;;;5062877;28;20033;-77
2023/12/09 08:30:53;;;;;;;1999.90;999.90;;;3.50;99.90;;;;;;5031944;28;20086;-77
2023/12/09 08:33:18;;;;;;;1999.90;999.90;;;3.50;99.90;;;;;;5051220;28;20774;-75
2023/12/09 08:35:44;;;;;;;1999.90;999.90;;;3.50;99.90;;;;;;5067664;28;20043;-76
2023/12/09 08:38:10;;;;;;;1999.90;999.90;;;3.50;99.90;;;;;;5074006;28;20069;-76
2023/12/09 08:40:35;;;;;;;1999.90;999.90;;;3.60;99.90;;;;;;5068638;28;20045;-77
2023/12/09 08:43:01;;;;;;;1999.90;999.90;;;3.70;99.90;;;;;;5069879;28;20036;-75
2023/12/09 08:45:31;;;;;;;1999.90;999.90;;;3.70;99.90;;;;;;5072917;28;20035;-75
2023/12/09 08:47:56;;;;;;;1999.90;999.90;;;3.70;99.90;;;;;;5072220;28;20043;-76
2023/12/09 08:50:22;;;;;;;1999.90;999.90;;;3.70;99.90;;;;;;5068968;28;20040;-75
2023/12/09 08:52:48;;;;;;;1999.90;999.90;;;3.60;99.90;;;;;;5065492;28;20044;-76
2023/12/09 08:55:13;;;;;;;1999.90;999.90;;;3.60;99.90;;;;;;5072111;28;20029;-76
2023/12/09 08:57:39;;;;;;;1999.90;999.90;;;3.70;99.90;;;;;;5073548;28;20147;-77
2023/12/09 09:00:08;;;;;;;1999.90;999.90;;;3.70;99.90;;;;;;5069824;28;20406;-77
2023/12/09 09:02:34;;;;;;;1999.90;999.90;;;3.80;99.90;;;;;;5071743;28;20621;-77
2023/12/09 09:04:59;;;;;;;1999.90;999.90;;;3.70;99.90;;;;;;5069538;28;20170;-76
2023/12/09 09:07:25;;;;;;;1999.90;999.90;;;3.70;99.90;;;;;;5069176;28;20051;-76
2023/12/09 09:09:51;;;;;;;1999.90;999.90;;;3.70;99.90;;;;;;5085412;28;20052;-76
2023/12/09 09:12:16;;;;;;;1999.90;999.90;;;3.60;99.90;;;;;;5071040;28;20036;-76
2023/12/09 09:14:42;;;;;;;1999.90;999.90;;;3.70;99.90;;;;;;5067984;28;20033;-77
2023/12/09 09:17:08;;;;;;;1999.90;999.90;;;3.70;99.90;;;;;;5067976;28;20056;-75
2023/12/09 09:19:35;;;;;;;1999.90;999.90;;;3.70;99.90;;;;;;5068353;28;20056;-77
2023/12/09 09:22:01;;;;;;;1999.90;999.90;;;3.70;99.90;;;;;;5068544;28;20033;-76
2023/12/09 09:24:26;;;;;;;1999.90;999.90;;;3.80;99.90;;;;;;5068808;28;20040;-76
2023/12/09 09:26:52;;;;;;;1999.90;999.90;;;3.80;99.90;;;;;;5070932;28;20028;-75
2023/12/09 09:29:17;;;;;;;1999.90;999.90;;;3.90;99.90;;;;;;5069856;28;20029;-75
2023/12/09 09:31:43;;;;;;;1999.90;999.90;;;3.90;99.90;;;;;;5069779;28;20044;-77
2023/12/09 09:34:09;;;;;;;1999.90;999.90;;;4.00;99.90;;;;;;5067546;28;20065;-79
2023/12/09 09:36:35;;;;;;;1999.90;999.90;;;4.20;99.90;;;;;;5065099;28;20028;-76
2023/12/09 09:39:00;;;;;;;1999.90;999.90;;;4.10;99.90;;;;;;5067810;28;20099;-75
2023/12/09 09:41:39;;;;;;;1999.90;999.90;;;4.10;99.90;;;;;;5073759;28;20033;-74
2023/12/09 09:44:11;;;;;;;1999.90;999.90;;;4.10;99.90;;;;;;5069701;28;20040;-74
2023/12/09 09:46:39;;;;;;;1999.90;999.90;;;4.20;99.90;;;;;;5064569;28;20036;-73
2023/12/09 09:49:05;;;;;;;1999.90;999.90;;;4.10;99.90;;;;;;5068943;28;20024;-79
2023/12/09 09:51:31;;;;;;;1999.90;999.90;;;4.10;99.90;;;;;;5070231;28;20095;-79
2023/12/09 09:54:12;;;;;;;1999.90;999.90;;;4.40;99.90;;;;;;5073711;28;20047;-76
2023/12/09 09:56:39;;;;;;;1999.90;999.90;;;4.50;99.90;;;;;;5065140;28;20070;-78
2023/12/09 09:59:06;;;;;;;1999.90;999.90;;;4.50;99.90;;;;;;5072044;28;20028;-76
2023/12/09 10:01:32;;;;;;;1999.90;999.90;;;4.50;99.90;;;;;;5069870;28;20033;-75
2023/12/09 10:03:58;;;;;;;1999.90;999.90;;;4.60;99.90;;;;;;5067525;28;20035;-75
2023/12/09 10:06:25;;;;;;;1999.90;999.90;;;4.40;99.90;;;;;;5050762;28;20039;-74
2023/12/09 10:08:51;;;;;;;1999.90;999.90;;;4.50;99.90;;;;;;5070813;28;20536;-75
2023/12/09 10:11:16;;;;;;;1999.90;999.90;;;4.50;99.90;;;;;;5070233;28;20025;-75
2023/12/09 10:13:44;;;;;;;1999.90;999.90;;;4.60;99.90;;;;;;5058454;28;20044;-74
2023/12/09 10:16:10;;;;;;;1999.90;999.90;;;4.60;99.90;;;;;;5068139;28;20170;-72
2023/12/09 10:18:36;;;;;;;1999.90;999.90;;;5.00;99.90;;;;;;5065896;28;20040;-79
2023/12/09 10:21:08;;;;;;;1999.90;999.90;;;4.90;99.90;;;;;;5067328;28;20036;-82
2023/12/09 10:23:37;;;;;;;1999.90;999.90;;;4.80;99.90;;;;;;5069875;28;20131;-87
2023/12/09 10:26:04;;;;;;;1999.90;999.90;;;4.80;99.90;;;;;;5064166;28;20082;-78
2023/12/09 10:28:31;;;;;;;1999.90;999.90;;;4.70;99.90;;;;;;5066623;28;20039;-82
2023/12/09 10:30:57;;;;;;;1999.90;999.90;;;4.70;99.90;;;;;;5068736;28;20118;-81
2023/12/09 10:33:22;;;;;;;1999.90;999.90;;;4.90;99.90;;;;;;5066386;28;20027;-88
2023/12/09 10:35:48;;;;;;;1999.90;999.90;;;5.20;99.90;;;;;;5071229;28;20024;-83
2023/12/09 10:38:17;;;;;;;1999.90;999.90;;;5.10;99.90;;;;;;5066199;28;20537;-80
2023/12/09 10:40:43;;;;;;;1999.90;999.90;;;5.80;99.90;;;;;;5067245;28;20028;-80
2023/12/09 10:43:09;;;;;;;1999.90;999.90;;;6.10;99.90;;;;;;5063832;28;20040;-79
2023/12/09 10:45:35;;;;;;;1999.90;999.90;;;6.20;99.90;;;;;;5069025;28;20032;-73
2023/12/09 10:48:00;;;;;;;1999.90;999.90;;;6.30;99.90;;;;;;5066917;28;20028;-77
2023/12/09 10:50:26;;;;;;;1999.90;999.90;;;6.10;99.90;;;;;;5068205;28;20032;-78
2023/12/09 10:52:52;;;;;;;1999.90;999.90;;;6.20;99.90;;;;;;5066637;28;20051;-76
2023/12/09 10:55:19;;;;;;;1999.90;999.90;;;6.00;99.90;;;;;;5065514;28;20113;-76
2023/12/09 10:57:48;;;;;;;1999.90;999.90;;;6.20;99.90;;;;;;5050433;28;20025;-76
2023/12/09 11:00:15;;;;;;;1999.90;999.90;;;6.00;99.90;;;;;;5064538;28;20036;-76
2023/12/09 11:02:42;;;;;;;1999.90;999.90;;;5.90;99.90;;;;;;5067338;28;20035;-75
2023/12/09 11:05:09;;;;;;;1999.90;999.90;;;5.70;99.90;;;;;;5066835;28;20024;-74
2023/12/09 11:07:36;;;;;;;1999.90;999.90;;;5.60;99.90;;;;;;5065418;28;20036;-79
2023/12/09 11:10:06;;;;;;;1999.90;999.90;;;5.40;99.90;;;;;;5064723;28;20032;-84
2023/12/09 11:12:32;;;;;;;1999.90;999.90;;;5.30;99.90;;;;;;5066572;28;20145;-79
2023/12/09 11:15:28;;;;;;;1999.90;999.90;;;5.50;99.90;;;;;;5066333;28;20031;-80
2023/12/09 11:17:54;;;;;;;1999.90;999.90;;;5.30;98.80;;;;;;5066237;28;20024;-80
2023/12/09 11:20:19;;;;;;;1999.90;999.90;;;5.30;98.20;;;;;;5064180;28;20044;-80
2023/12/09 11:22:47;;;;;;;1999.90;999.90;;;5.20;98.60;;;;;;5067671;28;20035;-78
2023/12/09 11:25:18;;;;;;;1999.90;999.90;;;5.20;97.50;;;;;;5064024;28;20020;-79
2023/12/09 11:27:45;;;;;;;1999.90;999.90;;;5.30;97.40;;;;;;5067208;28;20731;-80
2023/12/09 11:30:30;;;;;;;1999.90;999.90;;;5.10;97.30;;;;;;5067390;28;20088;-79
2023/12/09 11:32:56;;;;;;;1999.90;999.90;;;4.90;97.30;;;;;;5065980;28;20027;-81
2023/12/09 11:35:23;;;;;;;1999.90;999.90;;;5.10;98.00;;;;;;5071797;28;20090;-80
2023/12/09 11:37:50;;;;;;;1999.90;999.90;;;5.10;97.40;;;;;;5067469;28;20048;-77
2023/12/09 11:40:16;;;;;;;1999.90;999.90;;;5.10;97.40;;;;;;5068581;28;20063;-81
2023/12/09 11:42:42;;;;;;;1999.90;999.90;;;5.10;97.10;;;;;;5069222;28;20032;-83
2023/12/09 11:45:11;;;;;;;1999.90;999.90;;;5.00;97.30;;;;;;5065384;28;20111;-81
2023/12/09 11:47:39;;;;;;;1999.90;999.90;;;4.70;96.90;;;;;;5068969;28;20878;-75
2023/12/09 11:50:07;;;;;;;1999.90;999.90;;;4.70;97.80;;;;;;5068331;28;20024;-72
2023/12/09 11:52:33;;;;;;;1999.90;999.90;;;4.80;97.60;;;;;;5065987;28;20139;-74
2023/12/09 11:55:10;;;;;;;1999.90;999.90;;;4.90;97.60;;;;;;5068785;28;20333;-78
2023/12/09 11:57:37;;;;;;;1999.90;999.90;;;4.80;96.60;;;;;;5095038;28;20743;-71
2023/12/09 12:00:11;;;;;;;1999.90;999.90;;;4.80;97.40;;;;;;5068775;28;20032;-73
2023/12/09 12:02:40;;;;;;;1999.90;999.90;;;4.60;96.70;;;;;;5063688;28;20074;-75
2023/12/09 12:05:11;;;;;;;1999.90;999.90;;;4.50;97.10;;;;;;5066750;28;20033;-77